createdAt,value
2023-03-02T00:01:52.200Z,55.33
2023-03-02T00:05:54.195Z,55.53
2023-03-02T00:09:55.631Z,55.78
2023-03-02T00:13:58.612Z,56.63
2023-03-02T00:17:59.981Z,56.99
2023-03-02T00:22:01.342Z,56.54
2023-03-02T00:26:02.746Z,56.75
2023-03-02T00:30:08.029Z,57.03
2023-03-02T00:34:09.445Z,57.21
2023-03-02T00:38:10.792Z,57.33
2023-03-02T00:42:14.716Z,57.37
2023-03-02T00:46:19.564Z,57.76
2023-03-02T00:50:20.979Z,58.07
2023-03-02T00:54:22.518Z,58.41
2023-03-02T00:58:25.347Z,58.97
2023-03-02T01:02:28.221Z,58.61
2023-03-02T01:06:30.209Z,59.20
2023-03-02T01:10:33.562Z,59.29
2023-03-02T01:14:36.189Z,59.55
2023-03-02T01:18:39.036Z,59.77
2023-03-02T01:22:40.880Z,59.65
2023-03-02T01:26:42.581Z,59.72
2023-03-02T01:30:43.992Z,59.87
2023-03-02T01:34:46.719Z,60.41
2023-03-02T01:38:48.243Z,59.55
2023-03-02T01:42:56.415Z,59.15
2023-03-02T01:46:57.864Z,58.93
2023-03-02T01:51:02.622Z,59.47
2023-03-02T01:55:08.109Z,59.54
2023-03-02T01:59:13.910Z,60.13
2023-03-02T02:03:17.719Z,59.84
2023-03-02T02:07:20.479Z,59.56
2023-03-02T02:11:21.960Z,60.39
2023-03-02T02:15:23.503Z,59.41
2023-03-02T02:19:38.110Z,60.28
2023-03-02T02:23:48.876Z,60.10
2023-03-02T02:27:51.814Z,60.43
2023-03-02T02:31:57.360Z,60.50
2023-03-02T02:36:04.534Z,60.43
2023-03-02T02:40:12.678Z,60.52
2023-03-02T02:44:17.188Z,60.67
2023-03-02T02:48:20.987Z,60.62
2023-03-02T02:52:25.087Z,60.85
2023-03-02T02:56:30.356Z,61.20
2023-03-02T03:00:33.195Z,61.11
2023-03-02T03:04:34.707Z,61.21
2023-03-02T03:08:51.413Z,60.77
2023-03-02T03:12:52.842Z,60.84
2023-03-02T03:16:55.586Z,61.44
2023-03-02T03:20:57.154Z,61.18
2023-03-02T03:24:58.695Z,61.28
2023-03-02T03:29:00.664Z,60.80
2023-03-02T03:33:03.840Z,60.40
2023-03-02T03:37:05.199Z,61.25
2023-03-02T03:41:06.579Z,60.45
2023-03-02T03:45:08.526Z,61.18
2023-03-02T03:49:11.299Z,61.46
2023-03-02T03:53:12.786Z,62.07
2023-03-02T03:57:14.168Z,61.63
2023-03-02T04:01:15.617Z,61.06
2023-03-02T04:05:18.405Z,61.03
2023-03-02T04:09:21.150Z,61.48
2023-03-02T04:13:22.558Z,61.95
2023-03-02T04:17:24.199Z,62.41
2023-03-02T04:21:27.870Z,62.94
2023-03-02T04:25:30.280Z,62.89
2023-03-02T04:29:31.925Z,62.96
2023-03-02T04:33:33.351Z,62.81
2023-03-02T04:37:36.128Z,62.89
2023-03-02T04:41:38.026Z,63.23
2023-03-02T04:45:39.702Z,63.44
2023-03-02T04:49:41.172Z,62.89
2023-03-02T04:53:44.100Z,63.42
2023-03-02T04:57:45.450Z,63.49
2023-03-02T05:01:47.292Z,63.76
2023-03-02T05:05:48.734Z,63.71
2023-03-02T05:09:51.443Z,63.67
2023-03-02T05:13:55.671Z,63.28
2023-03-02T05:17:57.581Z,63.28
2023-03-02T05:21:58.970Z,63.43
2023-03-02T05:26:01.702Z,63.65
2023-03-02T05:30:03.477Z,63.49
2023-03-02T05:34:06.984Z,63.85
2023-03-02T05:38:08.950Z,63.91
2023-03-02T05:42:11.647Z,63.75
2023-03-02T05:46:13.035Z,63.33
2023-03-02T05:50:14.624Z,63.75
2023-03-02T05:54:15.995Z,63.48
2023-03-02T05:58:19.442Z,63.39
2023-03-02T06:02:20.869Z,63.51
2023-03-02T06:06:22.287Z,63.59
2023-03-02T06:10:24.363Z,63.82
2023-03-02T06:14:27.102Z,62.99
2023-03-02T06:18:28.482Z,63.01
2023-03-02T06:22:29.825Z,62.62
2023-03-02T06:26:31.539Z,62.43
2023-03-02T06:30:34.541Z,61.66
2023-03-02T06:34:35.919Z,62.24
2023-03-02T06:38:37.260Z,61.87
2023-03-02T06:42:39.428Z,62.51
2023-03-02T06:46:42.334Z,62.49
2023-03-02T06:50:43.707Z,62.71
2023-03-02T06:54:45.099Z,62.54
2023-03-02T06:58:46.501Z,62.13
2023-03-02T07:02:49.221Z,61.61
2023-03-02T07:06:50.702Z,61.11
2023-03-02T07:10:52.068Z,61.25
2023-03-02T07:14:53.674Z,60.17
2023-03-02T07:18:56.587Z,61.23
2023-03-02T07:22:58.061Z,60.99
2023-03-02T07:26:59.398Z,60.51
2023-03-02T07:31:00.961Z,59.90
2023-03-02T07:35:04.174Z,59.95
2023-03-02T07:39:05.649Z,58.40
2023-03-02T07:43:07.189Z,57.85
2023-03-02T07:47:09.251Z,52.51
2023-03-02T07:51:12.042Z,48.17
2023-03-02T07:55:13.637Z,46.30
2023-03-02T07:59:15.115Z,43.09
2023-03-02T08:03:16.549Z,43.18
2023-03-02T08:07:19.318Z,43.84
2023-03-02T08:11:20.750Z,44.83
2023-03-02T08:15:22.164Z,46.22
2023-03-02T08:19:23.569Z,46.65
2023-03-02T08:23:26.838Z,47.81
2023-03-02T08:27:28.344Z,48.18
2023-03-02T08:31:30.470Z,49.33
2023-03-02T08:35:31.927Z,49.93
2023-03-02T08:39:34.710Z,50.31
2023-03-02T08:43:36.312Z,50.44
2023-03-02T08:47:38.203Z,51.10
2023-03-02T08:51:39.614Z,49.73
2023-03-02T08:55:42.337Z,49.82
2023-03-02T08:59:43.723Z,49.85
2023-03-02T09:03:45.390Z,50.72
2023-03-02T09:07:46.811Z,50.67
2023-03-02T09:11:49.522Z,52.09
2023-03-02T09:15:50.963Z,50.56
2023-03-02T09:19:52.316Z,50.99
2023-03-02T09:23:54.089Z,51.00
2023-03-02T09:27:56.936Z,51.52
2023-03-02T09:31:58.438Z,51.18
2023-03-02T09:36:00.108Z,51.10
2023-03-02T09:40:01.523Z,50.68
2023-03-02T09:44:17.419Z,50.25
2023-03-02T09:48:28.435Z,49.61
2023-03-02T09:52:31.882Z,48.86
2023-03-02T09:56:36.861Z,49.14
2023-03-02T10:00:42.462Z,48.18
2023-03-02T10:04:47.918Z,47.35
2023-03-02T10:08:49.516Z,47.77
2023-03-02T10:13:05.902Z,48.34
2023-03-02T10:17:39.655Z,44.89
2023-03-02T10:21:43.969Z,43.30
2023-03-02T10:25:50.321Z,41.34
2023-03-02T10:29:58.479Z,40.92
2023-03-02T10:34:01.337Z,38.44
2023-03-02T10:38:12.340Z,38.21
2023-03-02T10:42:18.505Z,38.03
2023-03-02T10:46:20.078Z,36.49
2023-03-02T10:50:24.050Z,35.51
2023-03-02T10:54:25.917Z,34.41
2023-03-02T10:58:30.912Z,34.23
2023-03-02T11:02:36.112Z,32.29
2023-03-02T11:06:38.891Z,31.89
2023-03-02T11:10:51.528Z,31.61
2023-03-02T11:15:02.026Z,32.93
2023-03-02T11:19:07.169Z,33.20
2023-03-02T11:23:19.516Z,31.67
2023-03-02T11:27:24.042Z,32.52
2023-03-02T11:31:33.371Z,31.42
2023-03-02T11:35:42.040Z,30.70
2023-03-02T11:40:00.162Z,30.83
2023-03-02T11:44:09.487Z,31.48
2023-03-02T11:48:18.139Z,30.97
2023-03-02T11:52:22.268Z,31.08
2023-03-02T11:56:26.422Z,31.05
2023-03-02T12:00:31.713Z,32.10
2023-03-02T12:04:35.493Z,30.38
2023-03-02T12:08:40.030Z,30.77
2023-03-02T12:12:48.204Z,30.11
2023-03-02T12:16:50.311Z,30.42
2023-03-02T12:20:59.223Z,31.94
2023-03-02T12:25:04.843Z,33.18
2023-03-02T12:29:23.465Z,31.79
2023-03-02T12:33:24.932Z,31.36
2023-03-02T12:37:30.646Z,34.15
2023-03-02T12:41:57.032Z,32.75
2023-03-02T12:46:29.172Z,32.99
2023-03-02T12:50:33.548Z,33.34
2023-03-02T12:54:35.025Z,32.89
2023-03-02T12:58:36.427Z,32.69
2023-03-02T13:02:46.789Z,33.13
2023-03-02T13:06:48.497Z,33.42
2023-03-02T13:10:52.381Z,33.31
2023-03-02T13:14:56.993Z,32.77
2023-03-02T13:19:02.540Z,33.53
2023-03-02T13:23:04.025Z,33.92
2023-03-02T13:27:07.754Z,33.99
2023-03-02T13:31:19.293Z,34.36
2023-03-02T13:35:26.636Z,33.64
2023-03-02T13:39:30.205Z,34.03
2023-03-02T13:43:39.030Z,34.26
2023-03-02T13:47:40.448Z,33.28
2023-03-02T13:51:46.437Z,32.96
2023-03-02T13:55:48.567Z,35.10
2023-03-02T13:59:50.068Z,33.55
2023-03-02T14:03:51.439Z,34.40
2023-03-02T14:07:54.191Z,34.16
2023-03-02T14:11:56.153Z,34.33
2023-03-02T14:15:57.595Z,35.12
2023-03-02T14:19:59.288Z,35.38
2023-03-02T14:24:02.104Z,34.19
2023-03-02T14:28:03.903Z,34.35
2023-03-02T14:32:05.459Z,34.83
2023-03-02T14:36:08.045Z,34.84
2023-03-02T14:40:23.927Z,34.26
2023-03-02T14:44:25.506Z,35.00
2023-03-02T14:48:26.882Z,33.71
2023-03-02T14:52:32.911Z,33.82
2023-03-02T14:56:36.604Z,34.01
2023-03-02T15:00:38.351Z,34.31
2023-03-02T15:04:39.751Z,34.12
2023-03-02T15:08:41.154Z,34.58
2023-03-02T15:12:43.887Z,34.15
2023-03-02T15:16:45.313Z,33.95
2023-03-02T15:20:46.961Z,34.52
2023-03-02T15:24:48.420Z,35.04
2023-03-02T15:28:51.888Z,34.99
2023-03-02T15:32:53.417Z,35.61
2023-03-02T15:36:54.900Z,35.62
2023-03-02T15:40:56.363Z,35.87
2023-03-02T15:44:59.129Z,35.67
2023-03-02T15:49:00.501Z,36.32
2023-03-02T15:53:02.010Z,36.17
2023-03-02T15:57:03.635Z,36.36
2023-03-02T16:01:11.092Z,36.85
2023-03-02T16:05:12.852Z,36.88
2023-03-02T16:09:14.496Z,36.48
2023-03-02T16:13:15.855Z,36.42
2023-03-02T16:17:18.612Z,36.57
2023-03-02T16:21:20.570Z,36.41
2023-03-02T16:25:21.948Z,36.30
2023-03-02T16:29:23.348Z,36.51
2023-03-02T16:33:26.065Z,36.80
2023-03-02T16:37:27.547Z,36.56
2023-03-02T16:41:29.247Z,37.30
2023-03-02T16:45:31.090Z,37.29
2023-03-02T16:49:33.913Z,37.54
2023-03-02T16:53:35.411Z,37.96
2023-03-02T16:57:37.155Z,37.62
2023-03-02T17:01:38.800Z,37.76
2023-03-02T17:05:41.560Z,37.93
2023-03-02T17:09:42.912Z,38.36
2023-03-02T17:13:44.305Z,38.88
2023-03-02T17:17:45.693Z,39.00
2023-03-02T17:21:48.502Z,39.61
2023-03-02T17:25:49.893Z,39.97
2023-03-02T17:29:51.863Z,40.88
2023-03-02T17:33:53.232Z,41.39
2023-03-02T17:37:56.156Z,41.07
2023-03-02T17:41:57.654Z,41.41
2023-03-02T17:46:08.923Z,41.79
2023-03-02T17:50:12.060Z,41.06
2023-03-02T17:54:14.886Z,41.58
2023-03-02T17:58:16.296Z,42.78
2023-03-02T18:02:17.725Z,42.79
2023-03-02T18:06:19.186Z,42.49
2023-03-02T18:10:22.017Z,42.80
2023-03-02T18:14:23.408Z,43.23
2023-03-02T18:18:24.839Z,43.45
2023-03-02T18:22:26.285Z,43.88
2023-03-02T18:26:29.309Z,43.86
2023-03-02T18:30:30.870Z,44.00
2023-03-02T18:34:33.689Z,44.58
2023-03-02T18:38:36.357Z,44.43
2023-03-02T18:42:39.240Z,44.43
2023-03-02T18:46:40.753Z,45.52
2023-03-02T18:50:42.436Z,45.23
2023-03-02T18:54:43.885Z,46.44
2023-03-02T18:58:47.864Z,46.91
2023-03-02T19:02:49.528Z,48.07
2023-03-02T19:06:50.952Z,48.81
2023-03-02T19:10:53.707Z,50.02
2023-03-02T19:14:56.395Z,50.63
2023-03-02T19:18:57.803Z,51.75
2023-03-02T19:22:59.170Z,52.43
2023-03-02T19:27:00.837Z,52.99
2023-03-02T19:31:04.886Z,52.74
2023-03-02T19:35:07.439Z,53.59
2023-03-02T19:39:08.933Z,54.29
2023-03-02T19:43:10.350Z,54.75
2023-03-02T19:47:13.170Z,55.34
2023-03-02T19:51:15.608Z,55.43
2023-03-02T19:55:17.222Z,55.87
2023-03-02T19:59:18.859Z,56.29
2023-03-02T20:03:21.589Z,57.14
2023-03-02T20:07:23.023Z,57.16
2023-03-02T20:11:24.675Z,58.02
2023-03-02T20:15:26.798Z,57.61
2023-03-02T20:19:29.840Z,57.76
2023-03-02T20:23:31.319Z,58.09
2023-03-02T20:27:32.742Z,58.57
2023-03-02T20:31:35.548Z,58.63
2023-03-02T20:35:40.554Z,58.74
2023-03-02T20:39:44.070Z,59.72
2023-03-02T20:43:45.924Z,59.72
2023-03-02T20:47:47.423Z,60.04
2023-03-02T20:51:53.200Z,60.67
2023-03-02T20:55:54.733Z,60.91
2023-03-02T20:59:56.094Z,61.64
2023-03-02T21:03:57.817Z,61.87
2023-03-02T21:08:01.124Z,62.16
2023-03-02T21:12:02.687Z,62.27
2023-03-02T21:16:04.952Z,62.59
2023-03-02T21:20:09.751Z,63.33
2023-03-02T21:24:14.343Z,63.50
2023-03-02T21:28:15.760Z,63.66
2023-03-02T21:32:17.142Z,63.32
2023-03-02T21:36:20.982Z,63.61
2023-03-02T21:40:26.284Z,63.77
2023-03-02T21:44:27.742Z,64.29
2023-03-02T21:48:29.200Z,65.05
2023-03-02T21:52:31.145Z,65.75
2023-03-02T21:56:33.892Z,65.77
2023-03-02T22:00:38.640Z,66.82
2023-03-02T22:04:40.120Z,66.71
2023-03-02T22:08:41.477Z,67.27
2023-03-02T22:12:44.196Z,67.17
2023-03-02T22:16:46.740Z,67.05
2023-03-02T22:20:49.640Z,67.62
2023-03-02T22:24:52.704Z,67.68
2023-03-02T22:29:02.242Z,68.71
2023-03-02T22:33:08.204Z,68.39
2023-03-02T22:37:13.499Z,68.26
2023-03-02T22:41:17.245Z,68.69
2023-03-02T22:45:21.811Z,68.27
2023-03-02T22:49:23.319Z,68.38
2023-03-02T22:53:28.409Z,68.89
2023-03-02T22:57:35.362Z,69.30
2023-03-02T23:01:40.406Z,69.35
2023-03-02T23:05:42.920Z,69.95
2023-03-02T23:09:44.278Z,71.32
2023-03-02T23:13:46.689Z,71.27
2023-03-02T23:17:49.415Z,72.34
2023-03-02T23:21:50.772Z,71.65
2023-03-02T23:25:52.226Z,72.70
2023-03-02T23:29:53.905Z,73.53
2023-03-02T23:33:56.655Z,73.32
2023-03-02T23:37:58.243Z,73.79
2023-03-02T23:41:59.645Z,73.62
2023-03-02T23:46:01.139Z,75.51
2023-03-02T23:50:04.657Z,76.79
2023-03-02T23:54:06.252Z,76.99
2023-03-02T23:58:07.638Z,76.27
